Time;durP1;ratioP1;P1;durP2;ratioP2;P2;SDS_P1;SDS_P2;PMS_P1;PMS_P2;Temp;Humidity;BMP_temperature;BMP_pressure;BME280_temperature;BME280_humidity;BME280_pressure;Samples;Min_cycle;Max_cycle;Signal;HPM_P1;HPM_P2
2021/01/22 00:00:55;;;;;;;4.38;1.80;;;;;;;;;;4850925;29;20049;-75
2021/01/22 00:03:21;;;;;;;5.35;3.00;;;;;;;;;;4849879;29;20042;-76
2021/01/22 00:05:51;;;;;;;6.60;2.97;;;;;;;;;;4846768;29;20053;-75
2021/01/22 00:08:17;;;;;;;8.82;2.70;;;;;;;;;;4849114;29;20049;-73
2021/01/22 00:10:43;;;;;;;4.95;1.77;;;;;;;;;;4844937;29;20152;-73
2021/01/22 00:13:09;;;;;;;5.15;2.08;;;;;;;;;;4845828;29;20129;-73
2021/01/22 00:15:36;;;;;;;5.05;1.98;;;;;;;;;;4852452;29;20054;-73
2021/01/22 00:18:02;;;;;;;7.95;2.25;;;;;;;;;;4844950;29;20053;-73
2021/01/22 00:20:29;;;;;;;6.28;2.15;;;;;;;;;;4851123;29;20101;-75
2021/01/22 00:22:56;;;;;;;4.18;2.63;;;;;;;;;;4846135;29;20057;-75
2021/01/22 00:25:22;;;;;;;6.75;2.25;;;;;;;;;;4834715;29;20513;-75
2021/01/22 00:27:48;;;;;;;7.97;2.28;;;;;;;;;;4836485;29;20432;-75
2021/01/22 00:30:14;;;;;;;6.10;1.90;;;;;;;;;;4843564;29;20163;-75
2021/01/22 00:32:41;;;;;;;5.35;2.08;;;;;;;;;;4847165;29;20405;-74
2021/01/22 00:35:08;;;;;;;5.90;2.15;;;;;;;;;;4850046;29;20132;-75
2021/01/22 00:37:37;;;;;;;5.43;1.83;;;;;;;;;;4846410;29;20462;-75
2021/01/22 00:40:04;;;;;;;5.43;1.60;;;;;;;;;;4844829;29;20052;-74
2021/01/22 00:42:31;;;;;;;4.15;1.65;;;;;;;;;;4853718;29;20623;-74
2021/01/22 00:44:57;;;;;;;7.38;3.30;;;;;;;;;;4847435;29;20060;-75
2021/01/22 00:47:23;;;;;;;5.55;1.88;;;;;;;;;;4845775;29;20576;-74
2021/01/22 00:49:49;;;;;;;4.30;1.75;;;;;;;;;;4846303;29;20053;-74
2021/01/22 00:52:15;;;;;;;7.93;2.65;;;;;;;;;;4846183;29;20128;-74
2021/01/22 00:54:44;;;;;;;7.13;1.70;;;;;;;;;;4843951;29;20121;-74
2021/01/22 00:57:10;;;;;;;8.68;2.00;;;;;;;;;;4847448;29;20062;-75
2021/01/22 00:59:37;;;;;;;6.05;2.45;;;;;;;;;;4844688;29;20085;-75
2021/01/22 01:02:03;;;;;;;4.40;1.92;;;;;;;;;;4843278;29;20054;-74
2021/01/22 01:04:29;;;;;;;5.63;1.98;;;;;;;;;;4844784;29;20050;-75
2021/01/22 01:06:55;;;;;;;5.47;1.73;;;;;;;;;;4844978;29;20072;-74
2021/01/22 01:09:22;;;;;;;7.75;2.65;;;;;;;;;;4846525;29;20057;-75
2021/01/22 01:11:48;;;;;;;4.95;1.50;;;;;;;;;;4848993;29;20114;-75
2021/01/22 01:14:14;;;;;;;9.63;2.67;;;;;;;;;;4851513;29;20050;-75
2021/01/22 01:16:40;;;;;;;4.68;1.55;;;;;;;;;;4850378;29;20049;-75
2021/01/22 01:19:06;;;;;;;5.85;2.42;;;;;;;;;;4847153;29;20520;-74
2021/01/22 01:21:32;;;;;;;5.93;1.75;;;;;;;;;;4853006;29;20060;-75
2021/01/22 01:23:59;;;;;;;5.45;2.60;;;;;;;;;;4845720;29;20132;-74
2021/01/22 01:26:25;;;;;;;8.65;1.88;;;;;;;;;;4846849;29;20501;-74
2021/01/22 01:28:53;;;;;;;7.25;2.35;;;;;;;;;;4847987;29;20145;-74
2021/01/22 01:31:22;;;;;;;4.30;1.63;;;;;;;;;;4848652;29;20045;-75
2021/01/22 01:33:49;;;;;;;6.93;2.35;;;;;;;;;;4845500;29;20049;-75
2021/01/22 01:36:15;;;;;;;5.72;2.13;;;;;;;;;;4843668;29;20060;-75
2021/01/22 01:38:41;;;;;;;5.00;1.45;;;;;;;;;;4849403;29;20136;-76
2021/01/22 01:41:07;;;;;;;6.32;2.00;;;;;;;;;;4850234;29;20061;-75
2021/01/22 01:43:33;;;;;;;5.15;2.30;;;;;;;;;;4843945;29;20049;-75
2021/01/22 01:45:59;;;;;;;4.15;1.63;;;;;;;;;;4848456;29;20086;-78
2021/01/22 01:48:28;;;;;;;5.18;1.73;;;;;;;;;;4850993;29;20046;-76
2021/01/22 01:50:56;;;;;;;5.00;1.47;;;;;;;;;;4844621;29;20046;-75
2021/01/22 01:53:24;;;;;;;5.68;1.90;;;;;;;;;;4847019;29;20049;-76
2021/01/22 01:55:50;;;;;;;3.60;1.65;;;;;;;;;;4845341;29;20065;-74
2021/01/22 01:58:17;;;;;;;6.25;2.10;;;;;;;;;;4850564;29;20053;-76
2021/01/22 02:00:45;;;;;;;4.20;1.65;;;;;;;;;;4849000;29;20122;-76
2021/01/22 02:03:11;;;;;;;6.00;2.08;;;;;;;;;;4851667;29;20045;-78
2021/01/22 02:05:37;;;;;;;3.38;1.67;;;;;;;;;;4845652;29;20058;-77
2021/01/22 02:08:04;;;;;;;4.80;2.20;;;;;;;;;;4848995;29;20042;-77
2021/01/22 02:10:31;;;;;;;5.10;1.95;;;;;;;;;;4846361;29;20061;-78
2021/01/22 02:12:57;;;;;;;4.15;1.48;;;;;;;;;;4848014;29;20074;-78
2021/01/22 02:15:24;;;;;;;7.15;2.25;;;;;;;;;;4848652;29;20049;-78
2021/01/22 02:17:51;;;;;;;3.08;1.10;;;;;;;;;;4844524;29;20054;-77
2021/01/22 02:20:24;;;;;;;3.92;1.90;;;;;;;;;;4848796;29;20092;-77
2021/01/22 02:22:51;;;;;;;5.85;2.50;;;;;;;;;;4852595;29;20069;-77
2021/01/22 02:25:20;;;;;;;6.00;1.52;;;;;;;;;;4852166;29;20113;-78
2021/01/22 02:27:46;;;;;;;4.72;1.90;;;;;;;;;;4843386;29;20881;-79
2021/01/22 02:30:13;;;;;;;3.55;1.35;;;;;;;;;;4845445;29;20148;-78
2021/01/22 02:32:44;;;;;;;5.47;1.33;;;;;;;;;;4851845;29;20132;-75
2021/01/22 02:35:11;;;;;;;8.43;2.28;;;;;;;;;;4850168;29;20049;-75
2021/01/22 02:37:38;;;;;;;4.28;1.63;;;;;;;;;;4852198;29;20132;-75
2021/01/22 02:40:08;;;;;;;4.95;1.70;;;;;;;;;;4845375;29;20054;-75
2021/01/22 02:42:35;;;;;;;6.78;1.90;;;;;;;;;;4840175;29;20134;-75
2021/01/22 02:45:02;;;;;;;2.65;1.33;;;;;;;;;;4837785;29;20497;-76
2021/01/22 02:47:28;;;;;;;4.82;1.35;;;;;;;;;;4845945;29;20052;-77
2021/01/22 02:49:55;;;;;;;6.20;1.80;;;;;;;;;;4848403;29;20057;-75
2021/01/22 02:52:21;;;;;;;7.20;2.72;;;;;;;;;;4845532;29;20050;-74
2021/01/22 02:54:51;;;;;;;4.90;1.80;;;;;;;;;;4843958;29;20144;-75
2021/01/22 02:57:20;;;;;;;3.38;1.35;;;;;;;;;;4846715;29;20500;-77
2021/01/22 03:00:02;;;;;;;7.47;1.80;;;;;;;;;;4847409;29;20064;-78
2021/01/22 03:02:47;;;;;;;3.53;1.52;;;;;;;;;;4847650;29;20054;-77
2021/01/22 03:05:15;;;;;;;5.47;1.83;;;;;;;;;;4846901;29;20496;-77
2021/01/22 03:07:50;;;;;;;5.32;1.80;;;;;;;;;;4850753;29;20060;-78
2021/01/22 03:10:18;;;;;;;4.80;1.45;;;;;;;;;;4846018;29;20502;-76
2021/01/22 03:12:47;;;;;;;4.88;1.77;;;;;;;;;;4845290;29;20054;-76
2021/01/22 03:15:21;;;;;;;3.40;1.98;;;;;;;;;;4845762;29;20054;-77
2021/01/22 03:17:48;;;;;;;7.32;2.28;;;;;;;;;;4851904;29;20141;-76
2021/01/22 03:20:15;;;;;;;3.65;1.73;;;;;;;;;;4849824;29;20061;-75
2021/01/22 03:22:41;;;;;;;5.55;1.67;;;;;;;;;;4855096;29;20054;-75
2021/01/22 03:25:09;;;;;;;4.38;1.85;;;;;;;;;;4851598;29;20133;-77
2021/01/22 03:27:39;;;;;;;4.20;1.70;;;;;;;;;;4851927;29;20417;-77
2021/01/22 03:30:06;;;;;;;3.55;1.60;;;;;;;;;;4854329;29;20050;-77
2021/01/22 03:32:32;;;;;;;4.40;1.80;;;;;;;;;;4852944;29;20045;-77
2021/01/22 03:34:59;;;;;;;5.38;0.90;;;;;;;;;;4855409;29;20105;-77
2021/01/22 03:37:25;;;;;;;5.63;1.42;;;;;;;;;;4850654;29;20137;-76
2021/01/22 03:39:51;;;;;;;2.83;1.55;;;;;;;;;;4856314;29;20065;-77
2021/01/22 03:42:19;;;;;;;3.13;1.75;;;;;;;;;;4854013;29;20088;-77
2021/01/22 03:44:45;;;;;;;4.05;1.30;;;;;;;;;;4855265;29;20057;-76
2021/01/22 03:47:11;;;;;;;3.85;1.50;;;;;;;;;;4845282;29;20072;-76
2021/01/22 03:49:37;;;;;;;6.75;2.03;;;;;;;;;;4847491;29;20053;-76
2021/01/22 03:52:03;;;;;;;2.72;1.08;;;;;;;;;;4851451;29;20046;-77
2021/01/22 03:54:30;;;;;;;5.38;1.98;;;;;;;;;;4844590;29;20433;-75
2021/01/22 03:56:56;;;;;;;4.00;2.05;;;;;;;;;;4849980;29;20567;-77
2021/01/22 03:59:23;;;;;;;3.78;1.27;;;;;;;;;;4847807;29;20136;-76
2021/01/22 04:01:50;;;;;;;3.72;1.25;;;;;;;;;;4848786;29;20062;-76
2021/01/22 04:04:16;;;;;;;3.60;1.48;;;;;;;;;;4854946;29;20142;-76
2021/01/22 04:06:59;;;;;;;2.47;1.38;;;;;;;;;;4847750;29;20073;-76
2021/01/22 04:09:25;;;;;;;4.63;1.65;;;;;;;;;;4846889;29;20060;-77
2021/01/22 04:11:51;;;;;;;3.10;1.48;;;;;;;;;;4845942;29;20152;-76
2021/01/22 04:14:17;;;;;;;4.05;1.40;;;;;;;;;;4853786;29;20464;-76
2021/01/22 04:16:43;;;;;;;4.95;1.70;;;;;;;;;;4847400;29;20081;-76
2021/01/22 04:19:09;;;;;;;4.30;1.65;;;;;;;;;;4846950;29;20054;-76
2021/01/22 04:21:36;;;;;;;4.50;1.33;;;;;;;;;;4846540;29;20050;-76
2021/01/22 04:24:02;;;;;;;3.47;1.23;;;;;;;;;;4848220;29;20100;-77
2021/01/22 04:26:28;;;;;;;3.92;1.60;;;;;;;;;;4852922;29;20081;-77
2021/01/22 04:28:57;;;;;;;4.70;1.38;;;;;;;;;;4850452;29;20049;-79
2021/01/22 04:31:23;;;;;;;3.35;1.30;;;;;;;;;;4852979;29;20389;-77
2021/01/22 04:33:49;;;;;;;6.47;1.38;;;;;;;;;;4846306;29;20487;-77
2021/01/22 04:36:17;;;;;;;3.40;1.23;;;;;;;;;;4848944;29;20560;-76
2021/01/22 04:38:44;;;;;;;5.13;1.38;;;;;;;;;;4838478;29;20552;-77
2021/01/22 04:41:10;;;;;;;4.28;1.25;;;;;;;;;;4847234;29;20081;-77
2021/01/22 04:43:44;;;;;;;3.75;1.38;;;;;;;;;;4845890;29;20559;-76
2021/01/22 04:46:11;;;;;;;9.27;1.95;;;;;;;;;;4849952;29;20068;-78
2021/01/22 04:48:37;;;;;;;3.60;1.25;;;;;;;;;;4851142;29;20053;-77
2021/01/22 04:51:05;;;;;;;3.10;1.20;;;;;;;;;;4850084;29;20053;-77
2021/01/22 04:53:34;;;;;;;4.90;1.52;;;;;;;;;;4845688;29;20133;-78
2021/01/22 04:56:01;;;;;;;5.88;2.00;;;;;;;;;;4854409;29;20508;-78
2021/01/22 04:58:28;;;;;;;6.78;1.85;;;;;;;;;;4849195;29;20083;-78
2021/01/22 05:00:57;;;;;;;3.80;1.23;;;;;;;;;;4852019;29;20053;-79
2021/01/22 05:03:26;;;;;;;4.65;1.25;;;;;;;;;;4847821;29;20050;-78
2021/01/22 05:05:55;;;;;;;4.32;1.23;;;;;;;;;;4850338;29;20077;-78
2021/01/22 05:08:21;;;;;;;2.80;1.40;;;;;;;;;;4850522;29;20413;-77
2021/01/22 05:10:48;;;;;;;3.25;1.17;;;;;;;;;;4849521;29;20499;-77
2021/01/22 05:13:16;;;;;;;7.22;1.73;;;;;;;;;;4849442;29;20450;-77
2021/01/22 05:16:02;;;;;;;5.10;1.65;;;;;;;;;;4849671;29;20117;-76
2021/01/22 05:18:32;;;;;;;4.00;1.67;;;;;;;;;;4849793;29;20060;-77
2021/01/22 05:21:04;;;;;;;3.80;1.20;;;;;;;;;;4854067;29;20513;-77
2021/01/22 05:23:34;;;;;;;4.03;1.45;;;;;;;;;;4846637;29;20792;-79
2021/01/22 05:26:02;;;;;;;2.33;1.23;;;;;;;;;;4850768;29;20148;-77
2021/01/22 05:28:38;;;;;;;4.00;1.52;;;;;;;;;;4851272;29;20072;-76
2021/01/22 05:31:07;;;;;;;2.80;1.23;;;;;;;;;;4850764;29;20053;-80
2021/01/22 05:33:34;;;;;;;4.82;1.65;;;;;;;;;;4853729;29;20064;-76
2021/01/22 05:36:19;;;;;;;4.88;1.67;;;;;;;;;;4849904;29;20056;-77
2021/01/22 05:38:45;;;;;;;3.28;1.20;;;;;;;;;;4851008;29;20137;-77
2021/01/22 05:41:12;;;;;;;5.95;1.60;;;;;;;;;;4845265;29;20054;-76
2021/01/22 05:43:39;;;;;;;7.20;1.60;;;;;;;;;;4851334;29;20053;-76
2021/01/22 05:46:12;;;;;;;3.08;1.20;;;;;;;;;;4847744;29;20129;-77
2021/01/22 05:48:38;;;;;;;3.95;1.30;;;;;;;;;;4845451;29;20141;-76
2021/01/22 05:51:05;;;;;;;4.43;1.05;;;;;;;;;;4846205;29;20454;-77
2021/01/22 05:53:31;;;;;;;7.35;1.50;;;;;;;;;;4844338;29;20045;-76
2021/01/22 05:56:06;;;;;;;6.05;1.95;;;;;;;;;;4844886;29;20173;-77
2021/01/22 05:58:33;;;;;;;5.50;1.63;;;;;;;;;;4850589;29;20070;-75
2021/01/22 06:01:06;;;;;;;2.92;1.30;;;;;;;;;;4845500;29;20087;-75
2021/01/22 06:03:33;;;;;;;4.25;1.60;;;;;;;;;;4847899;29;20053;-75
2021/01/22 06:05:59;;;;;;;3.28;1.05;;;;;;;;;;4848630;29;20482;-75
2021/01/22 06:08:25;;;;;;;3.88;1.15;;;;;;;;;;4848429;29;20511;-77
2021/01/22 06:10:52;;;;;;;3.20;1.27;;;;;;;;;;4841369;29;20058;-76
2021/01/22 06:13:25;;;;;;;3.28;1.77;;;;;;;;;;4850744;29;20440;-77
2021/01/22 06:15:55;;;;;;;3.20;1.23;;;;;;;;;;4848226;29;20081;-75
2021/01/22 06:18:31;;;;;;;2.60;1.20;;;;;;;;;;4848631;29;20060;-76
2021/01/22 06:21:02;;;;;;;3.05;1.13;;;;;;;;;;4854466;29;20445;-75
2021/01/22 06:23:29;;;;;;;4.35;1.92;;;;;;;;;;4845787;29;20562;-74
2021/01/22 06:25:56;;;;;;;4.18;1.15;;;;;;;;;;4850350;29;20057;-77
2021/01/22 06:28:23;;;;;;;1.92;0.98;;;;;;;;;;4849156;29;20061;-76
2021/01/22 06:30:52;;;;;;;5.70;1.90;;;;;;;;;;4849625;29;20064;-74
2021/01/22 06:33:21;;;;;;;3.80;1.33;;;;;;;;;;4848822;29;20045;-74
2021/01/22 06:35:47;;;;;;;5.13;1.48;;;;;;;;;;4852968;29;20500;-74
2021/01/22 06:38:14;;;;;;;4.15;1.15;;;;;;;;;;4854613;29;20060;-74
2021/01/22 06:40:40;;;;;;;2.40;1.30;;;;;;;;;;4851221;29;20057;-76
2021/01/22 06:43:07;;;;;;;5.03;1.65;;;;;;;;;;4853544;29;20050;-74
2021/01/22 06:45:33;;;;;;;1.95;1.10;;;;;;;;;;4851393;29;20077;-75
2021/01/22 06:48:06;;;;;;;7.15;1.13;;;;;;;;;;4850365;29;20136;-79
2021/01/22 06:50:35;;;;;;;3.05;1.35;;;;;;;;;;4849994;29;20057;-83
2021/01/22 06:53:03;;;;;;;10.13;1.42;;;;;;;;;;4850802;29;20084;-77
2021/01/22 06:55:29;;;;;;;3.92;1.10;;;;;;;;;;4853541;29;20420;-76
2021/01/22 06:58:15;;;;;;;3.65;1.20;;;;;;;;;;4852073;29;20053;-74
2021/01/22 07:00:41;;;;;;;3.53;1.23;;;;;;;;;;4849697;29;20049;-75
2021/01/22 07:03:08;;;;;;;6.30;1.50;;;;;;;;;;4850962;29;20046;-75
2021/01/22 07:05:37;;;;;;;4.72;1.25;;;;;;;;;;4848797;29;20057;-73
2021/01/22 07:08:04;;;;;;;3.90;1.67;;;;;;;;;;4846031;29;20046;-74
2021/01/22 07:11:08;;;;;;;2.65;1.25;;;;;;;;;;4846430;29;20140;-77
2021/01/22 07:13:37;;;;;;;3.45;1.02;;;;;;;;;;4801677;29;20433;-77
2021/01/22 07:16:05;;;;;;;6.55;1.27;;;;;;;;;;4803924;29;20596;-75
2021/01/22 07:18:34;;;;;;;5.32;1.70;;;;;;;;;;4825601;29;20049;-75
2021/01/22 07:21:19;;;;;;;3.22;1.30;;;;;;;;;;4847116;29;20054;-75
2021/01/22 07:23:56;;;;;;;3.70;2.13;;;;;;;;;;4847687;29;20089;-76
2021/01/22 07:26:41;;;;;;;4.15;2.00;;;;;;;;;;4847590;29;20057;-78
2021/01/22 07:29:23;;;;;;;6.70;2.13;;;;;;;;;;4850765;29;20060;-77
2021/01/22 07:32:01;;;;;;;3.28;1.70;;;;;;;;;;4839390;29;20057;-77
2021/01/22 07:34:45;;;;;;;3.88;2.00;;;;;;;;;;4849460;29;20052;-80
2021/01/22 07:37:13;;;;;;;3.88;2.15;;;;;;;;;;4843880;29;20419;-75
2021/01/22 07:39:40;;;;;;;47.78;6.22;;;;;;;;;;4851325;29;20050;-78
2021/01/22 07:42:09;;;;;;;21.02;4.40;;;;;;;;;;4851331;29;20053;-78
2021/01/22 07:44:38;;;;;;;6.93;2.58;;;;;;;;;;4852165;29;20077;-82
2021/01/22 07:47:05;;;;;;;3.92;2.28;;;;;;;;;;4853255;29;20120;-79
2021/01/22 07:49:34;;;;;;;4.72;2.10;;;;;;;;;;4847303;29;20049;-79
2021/01/22 07:52:02;;;;;;;7.65;2.42;;;;;;;;;;4843189;29;20054;-79
2021/01/22 07:54:51;;;;;;;7.40;2.20;;;;;;;;;;4846751;29;20061;-78
2021/01/22 07:57:21;;;;;;;5.80;2.53;;;;;;;;;;4837256;29;20064;-78
2021/01/22 07:59:50;;;;;;;;;;;;;;;;;;4847810;29;20060;-81
2021/01/22 08:02:22;;;;;;;5.50;2.45;;;;;;;;;;4844955;29;19959;-82
2021/01/22 08:04:55;;;;;;;8.27;2.67;;;;;;;;;;4840421;29;20959;-87
2021/01/22 08:07:30;;;;;;;4.30;2.35;;;;;;;;;;4840349;29;20098;-81
2021/01/22 08:09:57;;;;;;;7.05;2.63;;;;;;;;;;4850678;29;20068;-81
2021/01/22 08:12:23;;;;;;;4.25;2.85;;;;;;;;;;4846362;29;20061;-75
2021/01/22 08:14:50;;;;;;;10.25;2.47;;;;;;;;;;4845937;29;20054;-76
2021/01/22 08:17:17;;;;;;;10.77;3.47;;;;;;;;;;4842006;29;20184;-76
2021/01/22 08:19:48;;;;;;;7.70;2.65;;;;;;;;;;4831738;29;20184;-77
2021/01/22 08:22:18;;;;;;;7.78;2.45;;;;;;;;;;4845643;29;20046;-77
2021/01/22 08:24:53;;;;;;;6.80;2.38;;;;;;;;;;4845443;29;20106;-76
2021/01/22 08:27:20;;;;;;;7.50;2.65;;;;;;;;;;4843910;29;20555;-76
2021/01/22 08:29:47;;;;;;;4.70;2.00;;;;;;;;;;4841593;29;20060;-77
2021/01/22 08:32:16;;;;;;;4.85;2.00;;;;;;;;;;4851103;29;20049;-73
2021/01/22 08:34:42;;;;;;;4.63;2.53;;;;;;;;;;4850537;29;20092;-74
2021/01/22 08:37:09;;;;;;;4.82;2.05;;;;;;;;;;4845294;29;20119;-74
2021/01/22 08:39:52;;;;;;;5.05;1.77;;;;;;;;;;4846115;29;20551;-76
2021/01/22 08:42:18;;;;;;;6.32;2.38;;;;;;;;;;4845915;29;20071;-80
2021/01/22 08:44:51;;;;;;;7.50;2.60;;;;;;;;;;4849849;29;20125;-84
2021/01/22 08:47:17;;;;;;;5.03;2.38;;;;;;;;;;4847228;29;20057;-80
2021/01/22 08:49:54;;;;;;;7.22;2.30;;;;;;;;;;4835243;29;20492;-81
2021/01/22 08:52:20;;;;;;;8.73;2.25;;;;;;;;;;4849232;29;20049;-80
2021/01/22 08:54:49;;;;;;;6.97;2.10;;;;;;;;;;4848954;29;20420;-80
2021/01/22 08:57:15;;;;;;;6.00;2.58;;;;;;;;;;4850330;29;20049;-80
2021/01/22 08:59:57;;;;;;;8.57;2.65;;;;;;;;;;4843208;29;20049;-82
2021/01/22 09:02:36;;;;;;;7.68;2.55;;;;;;;;;;4849616;29;20136;-83
2021/01/22 09:05:03;;;;;;;5.20;2.45;;;;;;;;;;4850668;29;20496;-79
2021/01/22 09:07:30;;;;;;;6.43;2.50;;;;;;;;;;4841436;29;20046;-78
2021/01/22 09:10:00;;;;;;;4.13;2.20;;;;;;;;;;4846160;29;20169;-74
2021/01/22 09:12:27;;;;;;;6.70;2.33;;;;;;;;;;4848817;29;20053;-72
2021/01/22 09:14:54;;;;;;;10.38;2.45;;;;;;;;;;4846220;29;20057;-74
2021/01/22 09:17:21;;;;;;;10.23;2.72;;;;;;;;;;4844360;29;20046;-72
2021/01/22 09:19:58;;;;;;;6.50;1.92;;;;;;;;;;4846024;29;20058;-77
2021/01/22 09:22:31;;;;;;;7.65;2.30;;;;;;;;;;4849072;29;20056;-77
2021/01/22 09:24:57;;;;;;;5.97;3.15;;;;;;;;;;4846796;29;20162;-76
2021/01/22 09:27:24;;;;;;;8.13;2.25;;;;;;;;;;4848836;29;20065;-75
2021/01/22 09:29:54;;;;;;;8.52;2.42;;;;;;;;;;4846456;29;20088;-75
2021/01/22 09:32:20;;;;;;;7.90;2.90;;;;;;;;;;4847538;29;20136;-76
2021/01/22 09:34:47;;;;;;;5.03;2.20;;;;;;;;;;4846251;29;20049;-73
2021/01/22 09:37:13;;;;;;;4.95;2.22;;;;;;;;;;4848421;29;20880;-72
2021/01/22 09:39:46;;;;;;;7.18;2.67;;;;;;;;;;4850057;29;20046;-74
2021/01/22 09:42:13;;;;;;;6.20;1.95;;;;;;;;;;4848561;29;20492;-74
2021/01/22 09:44:39;;;;;;;4.20;1.77;;;;;;;;;;4846824;29;20239;-79
2021/01/22 09:47:05;;;;;;;4.55;1.70;;;;;;;;;;4845588;29;20068;-88
2021/01/22 09:49:31;;;;;;;4.90;2.58;;;;;;;;;;4849510;29;20045;-79
2021/01/22 09:51:58;;;;;;;3.72;1.75;;;;;;;;;;4847512;29;20064;-77
2021/01/22 09:54:24;;;;;;;8.25;2.50;;;;;;;;;;4845867;29;20671;-81
2021/01/22 09:56:50;;;;;;;6.80;2.55;;;;;;;;;;4850899;29;20058;-79
2021/01/22 09:59:16;;;;;;;6.05;2.17;;;;;;;;;;4844117;29;20052;-76
2021/01/22 10:01:42;;;;;;;6.03;2.08;;;;;;;;;;4845540;29;20045;-76
2021/01/22 10:04:09;;;;;;;7.80;2.03;;;;;;;;;;4849862;29;20066;-75
2021/01/22 10:06:37;;;;;;;5.20;1.92;;;;;;;;;;4847211;29;20506;-75
2021/01/22 10:09:09;;;;;;;6.05;1.67;;;;;;;;;;4845128;29;20053;-76
2021/01/22 10:11:36;;;;;;;7.82;1.63;;;;;;;;;;4842604;29;20061;-76
2021/01/22 10:14:03;;;;;;;6.38;2.40;;;;;;;;;;4845558;29;20436;-75
2021/01/22 10:16:30;;;;;;;6.32;2.05;;;;;;;;;;4848294;29;20056;-75
2021/01/22 10:18:59;;;;;;;3.47;1.65;;;;;;;;;;4845904;29;20597;-76
2021/01/22 10:21:27;;;;;;;6.35;2.00;;;;;;;;;;4849756;29;20472;-76
2021/01/22 10:23:53;;;;;;;5.63;2.03;;;;;;;;;;4844578;29;20056;-75
2021/01/22 10:26:21;;;;;;;8.32;2.60;;;;;;;;;;4845210;29;20057;-75
2021/01/22 10:28:48;;;;;;;20.23;3.92;;;;;;;;;;4845781;29;20057;-77
2021/01/22 10:31:14;;;;;;;6.43;3.03;;;;;;;;;;4845533;29;20076;-75
2021/01/22 10:33:40;;;;;;;6.07;2.15;;;;;;;;;;4847989;29;20068;-76
2021/01/22 10:36:07;;;;;;;5.55;2.05;;;;;;;;;;4841040;29;20170;-76
2021/01/22 10:38:33;;;;;;;4.75;2.47;;;;;;;;;;4842996;29;20074;-77
2021/01/22 10:41:00;;;;;;;5.30;2.40;;;;;;;;;;4847615;29;20148;-76
2021/01/22 10:43:27;;;;;;;6.28;3.17;;;;;;;;;;4847365;29;20501;-77
2021/01/22 10:45:53;;;;;;;5.68;2.65;;;;;;;;;;4849916;29;20113;-76
2021/01/22 10:48:20;;;;;;;8.77;3.53;;;;;;;;;;4847538;29;20488;-76
2021/01/22 10:50:50;;;;;;;8.27;3.22;;;;;;;;;;4845003;29;20061;-77
2021/01/22 10:53:17;;;;;;;5.95;3.53;;;;;;;;;;4840612;29;20065;-76
2021/01/22 10:55:44;;;;;;;5.28;3.03;;;;;;;;;;4847150;29;20056;-75
2021/01/22 10:58:10;;;;;;;9.65;3.20;;;;;;;;;;4848518;29;20492;-76
2021/01/22 11:00:37;;;;;;;9.80;3.88;;;;;;;;;;4846753;29;20053;-76
2021/01/22 11:03:04;;;;;;;17.27;4.38;;;;;;;;;;4845500;29;20077;-78
2021/01/22 11:05:31;;;;;;;11.30;3.63;;;;;;;;;;4844714;29;20557;-77
2021/01/22 11:08:04;;;;;;;14.93;4.63;;;;;;;;;;4845134;29;20053;-75
2021/01/22 11:10:30;;;;;;;7.18;3.05;;;;;;;;;;4849132;29;20061;-77
2021/01/22 11:12:56;;;;;;;9.88;3.30;;;;;;;;;;4843710;29;20045;-75
2021/01/22 11:15:22;;;;;;;18.15;3.88;;;;;;;;;;4846862;29;20085;-79
2021/01/22 11:17:49;;;;;;;9.73;4.35;;;;;;;;;;4844077;29;20054;-78
2021/01/22 11:20:18;;;;;;;9.88;3.50;;;;;;;;;;4847474;29;20053;-77
2021/01/22 11:22:47;;;;;;;;;;;;;;;;;;4847289;29;20057;-77
2021/01/22 11:25:14;;;;;;;7.47;3.15;;;;;;;;;;4846465;29;19931;-78
2021/01/22 11:27:41;;;;;;;14.48;3.88;;;;;;;;;;4843843;29;20064;-78
2021/01/22 11:30:08;;;;;;;8.10;3.10;;;;;;;;;;4848049;29;20056;-76
2021/01/22 11:32:34;;;;;;;8.63;3.10;;;;;;;;;;4847541;29;20060;-78
2021/01/22 11:35:01;;;;;;;5.90;3.15;;;;;;;;;;4845934;29;20045;-77
2021/01/22 11:37:28;;;;;;;9.13;2.88;;;;;;;;;;4847806;29;20117;-77
2021/01/22 11:39:55;;;;;;;19.92;3.45;;;;;;;;;;4851686;29;20057;-78
2021/01/22 11:42:21;;;;;;;5.25;2.70;;;;;;;;;;4850252;29;20050;-78
2021/01/22 11:44:48;;;;;;;7.28;2.65;;;;;;;;;;4850367;29;20064;-78
2021/01/22 11:47:14;;;;;;;7.32;2.90;;;;;;;;;;4850873;29;20065;-77
2021/01/22 11:49:41;;;;;;;7.90;2.78;;;;;;;;;;4834038;29;20049;-78
2021/01/22 11:52:07;;;;;;;3.92;2.33;;;;;;;;;;4844692;29;20064;-77
2021/01/22 11:54:34;;;;;;;5.30;2.40;;;;;;;;;;4858008;29;20048;-78
2021/01/22 11:57:01;;;;;;;5.05;2.25;;;;;;;;;;4845495;29;20057;-77
2021/01/22 11:59:27;;;;;;;7.38;2.25;;;;;;;;;;4850579;29;20543;-78
2021/01/22 12:01:53;;;;;;;5.18;2.78;;;;;;;;;;4848095;29;20080;-77
2021/01/22 12:04:19;;;;;;;7.53;2.85;;;;;;;;;;4852545;29;20057;-78
2021/01/22 12:06:46;;;;;;;6.63;1.83;;;;;;;;;;4849704;29;20053;-79
2021/01/22 12:09:12;;;;;;;6.57;2.33;;;;;;;;;;4848460;29;20049;-77
2021/01/22 13:11:52;;;;;;;4.53;1.38;;;;;;;;;;3653067;29;20053;-76
2021/01/22 13:14:18;;;;;;;2.58;1.30;;;;;;;;;;4865495;29;20056;-76
2021/01/22 13:16:44;;;;;;;4.55;1.60;;;;;;;;;;4870563;29;20412;-76
2021/01/22 13:19:10;;;;;;;2.80;1.10;;;;;;;;;;4870446;29;20057;-75
2021/01/22 13:21:36;;;;;;;3.10;1.35;;;;;;;;;;4870490;29;20136;-76
2021/01/22 13:24:05;;;;;;;2.80;1.15;;;;;;;;;;4869445;29;20047;-77
2021/01/22 13:26:31;;;;;;;3.13;1.35;;;;;;;;;;4868938;29;20059;-77
2021/01/22 13:28:57;;;;;;;2.00;1.15;;;;;;;;;;4868301;29;20052;-78
2021/01/22 13:31:23;;;;;;;2.78;1.20;;;;;;;;;;4862110;29;20061;-78
2021/01/22 13:33:50;;;;;;;3.53;1.48;;;;;;;;;;4870014;29;20049;-79
2021/01/22 13:36:29;;;;;;;2.78;0.68;;;;;;;;;;4865869;29;20063;-80
2021/01/22 13:38:56;;;;;;;3.92;1.45;;;;;;;;;;4872364;29;20162;-79
2021/01/22 13:41:23;;;;;;;2.55;1.00;;;;;;;;;;4868246;29;20049;-79
2021/01/22 13:43:49;;;;;;;2.00;1.00;;;;;;;;;;4871555;29;20400;-79
2021/01/22 13:46:15;;;;;;;1.95;0.98;;;;;;;;;;4869172;29;20060;-79
2021/01/22 13:48:45;;;;;;;2.05;0.95;;;;;;;;;;4869308;29;20050;-79
2021/01/22 13:51:12;;;;;;;4.60;0.85;;;;;;;;;;4871898;29;20546;-79
2021/01/22 13:53:38;;;;;;;1.85;1.20;;;;;;;;;;4866874;29;20045;-77
2021/01/22 13:56:04;;;;;;;2.50;1.30;;;;;;;;;;4871388;29;20048;-78
2021/01/22 13:58:31;;;;;;;2.38;0.90;;;;;;;;;;4868412;29;20141;-79
2021/01/22 14:00:57;;;;;;;4.80;1.17;;;;;;;;;;4868136;29;20522;-78
2021/01/22 14:03:25;;;;;;;2.35;1.52;;;;;;;;;;4870028;29;20047;-77
2021/01/22 14:05:52;;;;;;;1.83;0.90;;;;;;;;;;4871359;29;20053;-76
2021/01/22 14:08:20;;;;;;;3.40;1.17;;;;;;;;;;4870498;29;20059;-73
2021/01/22 14:10:46;;;;;;;2.65;1.15;;;;;;;;;;4870502;29;20516;-75
2021/01/22 14:13:13;;;;;;;2.28;1.10;;;;;;;;;;4863807;29;20042;-76
2021/01/22 14:15:39;;;;;;;1.60;0.90;;;;;;;;;;4859498;29;20053;-75
2021/01/22 14:18:05;;;;;;;1.90;1.45;;;;;;;;;;4859517;29;20493;-74
2021/01/22 14:20:31;;;;;;;2.13;0.85;;;;;;;;;;4860000;29;20109;-73
2021/01/22 14:22:57;;;;;;;1.60;0.88;;;;;;;;;;4869229;29;20171;-72
2021/01/22 14:25:26;;;;;;;1.38;0.82;;;;;;;;;;4862925;29;20049;-72
2021/01/22 14:27:54;;;;;;;1.17;0.70;;;;;;;;;;4863842;29;20065;-73
2021/01/22 14:30:20;;;;;;;2.97;0.95;;;;;;;;;;4864251;29;20492;-70
2021/01/22 14:32:46;;;;;;;1.20;0.73;;;;;;;;;;4870917;29;20064;-71
2021/01/22 14:35:15;;;;;;;1.52;0.90;;;;;;;;;;4868480;29;20053;-73
2021/01/22 14:37:41;;;;;;;2.92;1.13;;;;;;;;;;4863168;29;20045;-73
2021/01/22 14:40:08;;;;;;;2.05;1.00;;;;;;;;;;4867377;29;20093;-73
2021/01/22 14:42:34;;;;;;;1.80;0.93;;;;;;;;;;4863228;29;20050;-72
2021/01/22 14:45:01;;;;;;;1.10;0.82;;;;;;;;;;4870936;29;20052;-72
2021/01/22 14:47:27;;;;;;;1.85;0.60;;;;;;;;;;4866961;29;20056;-73
2021/01/22 14:49:53;;;;;;;1.05;0.60;;;;;;;;;;4865942;29;20050;-76
2021/01/22 14:52:20;;;;;;;1.02;0.93;;;;;;;;;;4864351;29;20415;-73
2021/01/22 14:54:53;;;;;;;1.30;0.75;;;;;;;;;;4864782;29;20057;-73
2021/01/22 14:57:21;;;;;;;3.60;0.70;;;;;;;;;;4868084;29;20053;-73
2021/01/22 14:59:47;;;;;;;1.92;0.98;;;;;;;;;;4869221;29;20132;-73
2021/01/22 15:02:15;;;;;;;4.07;0.93;;;;;;;;;;4870783;29;20050;-73
2021/01/22 15:04:41;;;;;;;3.97;0.57;;;;;;;;;;4872446;29;20579;-73
2021/01/22 15:07:08;;;;;;;2.63;0.77;;;;;;;;;;4869562;29;20049;-72
2021/01/22 15:09:34;;;;;;;2.13;0.75;;;;;;;;;;4869889;29;20492;-71
2021/01/22 15:12:01;;;;;;;2.97;1.15;;;;;;;;;;4866451;29;20152;-71
2021/01/22 15:14:28;;;;;;;2.47;0.65;;;;;;;;;;4868851;29;20049;-73
2021/01/22 15:16:55;;;;;;;2.13;0.88;;;;;;;;;;4870670;29;20160;-74
2021/01/22 15:19:25;;;;;;;4.93;0.93;;;;;;;;;;4868505;29;20041;-74
2021/01/22 15:21:54;;;;;;;2.78;0.70;;;;;;;;;;4869069;29;20049;-74
2021/01/22 15:24:20;;;;;;;2.90;0.90;;;;;;;;;;4872239;29;20449;-74
2021/01/22 15:26:48;;;;;;;2.70;1.00;;;;;;;;;;4872672;29;20439;-74
2021/01/22 15:29:15;;;;;;;6.10;0.98;;;;;;;;;;4871081;29;20053;-74
2021/01/22 15:31:42;;;;;;;5.25;1.00;;;;;;;;;;4875468;29;20052;-74
2021/01/22 15:34:09;;;;;;;2.75;0.90;;;;;;;;;;4872569;29;20060;-72
2021/01/22 15:36:38;;;;;;;2.78;0.80;;;;;;;;;;4865460;29;20492;-74
2021/01/22 15:39:05;;;;;;;1.33;0.80;;;;;;;;;;4868670;29;20128;-74
2021/01/22 15:41:31;;;;;;;1.60;0.60;;;;;;;;;;4872542;29;20056;-74
2021/01/22 15:43:57;;;;;;;1.38;0.50;;;;;;;;;;4865176;29;20520;-74
2021/01/22 15:46:24;;;;;;;2.13;0.80;;;;;;;;;;4876222;29;20053;-74
2021/01/22 15:48:50;;;;;;;1.30;0.75;;;;;;;;;;4863087;29;20137;-75